sensor_id;sensor_type;location;lat;lon;timestamp;pressure;altitude;pressure_sealevel;temperature;humidity
57594;BME280;43423;46.510;6.686;2023-07-28T00:01:31;95927.56;;;20.22;55.41
57594;BME280;43423;46.510;6.686;2023-07-28T00:03:56;95928.31;;;20.23;55.84
57594;BME280;43423;46.510;6.686;2023-07-28T00:06:23;95930.91;;;20.28;55.80
57594;BME280;43423;46.510;6.686;2023-07-28T00:08:49;95924.41;;;20.41;55.56
57594;BME280;43423;46.510;6.686;2023-07-28T00:11:15;95933.19;;;20.53;55.21
57594;BME280;43423;46.510;6.686;2023-07-28T00:13:42;95943.81;;;20.62;54.70
57594;BME280;43423;46.510;6.686;2023-07-28T00:16:09;95933.56;;;20.57;55.08
57594;BME280;43423;46.510;6.686;2023-07-28T00:18:35;95934.69;;;20.69;54.68
57594;BME280;43423;46.510;6.686;2023-07-28T00:21:01;95933.75;;;20.59;55.32
57594;BME280;43423;46.510;6.686;2023-07-28T00:23:28;95929.47;;;20.66;55.74
57594;BME280;43423;46.510;6.686;2023-07-28T00:25:53;95931.69;;;20.67;55.72
57594;BME280;43423;46.510;6.686;2023-07-28T00:28:19;95930.59;;;20.62;56.12
57594;BME280;43423;46.510;6.686;2023-07-28T00:30:49;95941.22;;;20.72;56.71
57594;BME280;43423;46.510;6.686;2023-07-28T00:33:15;95944.00;;;20.87;56.74
57594;BME280;43423;46.510;6.686;2023-07-28T00:35:41;95941.72;;;21.08;56.26
57594;BME280;43423;46.510;6.686;2023-07-28T00:38:06;95941.38;;;20.89;56.72
57594;BME280;43423;46.510;6.686;2023-07-28T00:40:32;95946.41;;;20.90;56.91
57594;BME280;43423;46.510;6.686;2023-07-28T00:42:57;95955.19;;;20.87;56.50
57594;BME280;43423;46.510;6.686;2023-07-28T00:45:23;95960.38;;;20.90;56.88
57594;BME280;43423;46.510;6.686;2023-07-28T00:47:49;95954.78;;;21.06;56.79
57594;BME280;43423;46.510;6.686;2023-07-28T00:50:15;95961.50;;;20.87;56.99
57594;BME280;43423;46.510;6.686;2023-07-28T00:52:40;95962.59;;;21.00;56.62
57594;BME280;43423;46.510;6.686;2023-07-28T00:55:06;95970.25;;;20.99;56.39
57594;BME280;43423;46.510;6.686;2023-07-28T00:57:33;95975.31;;;20.85;56.61
57594;BME280;43423;46.510;6.686;2023-07-28T01:00:00;95987.97;;;21.02;55.68
57594;BME280;43423;46.510;6.686;2023-07-28T01:02:25;95992.41;;;20.97;56.44
57594;BME280;43423;46.510;6.686;2023-07-28T01:04:52;95995.97;;;20.90;56.78
57594;BME280;43423;46.510;6.686;2023-07-28T01:07:34;95998.19;;;20.99;56.73
57594;BME280;43423;46.510;6.686;2023-07-28T01:10:18;96004.34;;;20.98;56.08
57594;BME280;43423;46.510;6.686;2023-07-28T01:12:44;96001.38;;;21.03;55.87
57594;BME280;43423;46.510;6.686;2023-07-28T01:15:10;96008.63;;;20.99;55.20
57594;BME280;43423;46.510;6.686;2023-07-28T01:17:42;96013.84;;;21.02;55.10
57594;BME280;43423;46.510;6.686;2023-07-28T01:20:08;96023.53;;;21.09;54.47
57594;BME280;43423;46.510;6.686;2023-07-28T01:27:54;96025.22;;;21.19;54.51
57594;BME280;43423;46.510;6.686;2023-07-28T01:30:21;96028.75;;;21.20;54.78
57594;BME280;43423;46.510;6.686;2023-07-28T01:32:51;96035.66;;;21.19;55.35
57594;BME280;43423;46.510;6.686;2023-07-28T01:35:16;96031.75;;;21.30;54.72
57594;BME280;43423;46.510;6.686;2023-07-28T01:37:42;96034.16;;;21.18;54.56
57594;BME280;43423;46.510;6.686;2023-07-28T01:40:08;96035.44;;;21.25;55.33
57594;BME280;43423;46.510;6.686;2023-07-28T01:42:33;96020.19;;;21.26;54.66
57594;BME280;43423;46.510;6.686;2023-07-28T01:44:59;96040.69;;;21.43;54.42
57594;BME280;43423;46.510;6.686;2023-07-28T01:47:24;96038.63;;;21.44;54.42
57594;BME280;43423;46.510;6.686;2023-07-28T01:49:50;96044.59;;;21.40;55.42
57594;BME280;43423;46.510;6.686;2023-07-28T01:52:16;96043.50;;;21.36;55.57
57594;BME280;43423;46.510;6.686;2023-07-28T01:54:42;96039.00;;;21.40;55.33
57594;BME280;43423;46.510;6.686;2023-07-28T01:57:07;96045.38;;;21.33;55.68
57594;BME280;43423;46.510;6.686;2023-07-28T01:59:33;96047.59;;;21.42;55.34
57594;BME280;43423;46.510;6.686;2023-07-28T02:01:58;96046.84;;;21.19;56.49
57594;BME280;43423;46.510;6.686;2023-07-28T02:04:24;96045.91;;;21.32;56.24
57594;BME280;43423;46.510;6.686;2023-07-28T02:06:49;96051.69;;;21.41;55.42
57594;BME280;43423;46.510;6.686;2023-07-28T02:09:15;96052.97;;;21.48;55.75
57594;BME280;43423;46.510;6.686;2023-07-28T02:11:40;96056.91;;;21.45;54.95
57594;BME280;43423;46.510;6.686;2023-07-28T02:14:06;96062.50;;;21.45;55.79
57594;BME280;43423;46.510;6.686;2023-07-28T02:16:32;96052.97;;;21.48;55.79
57594;BME280;43423;46.510;6.686;2023-07-28T02:18:57;96052.03;;;21.45;56.28
57594;BME280;43423;46.510;6.686;2023-07-28T02:21:23;96047.59;;;21.35;57.10
57594;BME280;43423;46.510;6.686;2023-07-28T02:23:48;96040.69;;;21.36;56.94
57594;BME280;43423;46.510;6.686;2023-07-28T02:26:14;96029.69;;;21.38;57.36
57594;BME280;43423;46.510;6.686;2023-07-28T02:28:40;96039.94;;;21.35;57.75
57594;BME280;43423;46.510;6.686;2023-07-28T02:31:05;96036.41;;;21.27;58.68
57594;BME280;43423;46.510;6.686;2023-07-28T02:33:31;96027.63;;;21.23;59.07
57594;BME280;43423;46.510;6.686;2023-07-28T02:36:00;96031.91;;;21.39;58.26
57594;BME280;43423;46.510;6.686;2023-07-28T02:38:26;96020.19;;;21.26;59.28
57594;BME280;43423;46.510;6.686;2023-07-28T02:40:51;96015.50;;;21.21;60.10
57594;BME280;43423;46.510;6.686;2023-07-28T02:43:17;96018.88;;;21.04;60.45
57594;BME280;43423;46.510;6.686;2023-07-28T02:45:42;96009.19;;;21.05;60.50
57594;BME280;43423;46.510;6.686;2023-07-28T02:48:08;96016.44;;;21.08;60.83
57594;BME280;43423;46.510;6.686;2023-07-28T02:50:34;96023.34;;;21.07;60.37
57594;BME280;43423;46.510;6.686;2023-07-28T02:52:59;96032.69;;;21.02;61.29
57594;BME280;43423;46.510;6.686;2023-07-28T02:55:25;96034.91;;;21.03;62.04
57594;BME280;43423;46.510;6.686;2023-07-28T02:57:50;96033.41;;;21.10;62.02
57594;BME280;43423;46.510;6.686;2023-07-28T03:00:16;96031.16;;;21.01;62.54
57594;BME280;43423;46.510;6.686;2023-07-28T03:02:41;96032.13;;;21.03;62.50
57594;BME280;43423;46.510;6.686;2023-07-28T03:05:07;96030.63;;;20.95;63.25
57594;BME280;43423;46.510;6.686;2023-07-28T03:07:33;96037.31;;;20.99;63.03
57594;BME280;43423;46.510;6.686;2023-07-28T03:09:58;96028.19;;;20.83;63.02
57594;BME280;43423;46.510;6.686;2023-07-28T03:12:24;96012.16;;;20.76;63.00
57594;BME280;43423;46.510;6.686;2023-07-28T03:14:49;96008.63;;;20.76;62.36
57594;BME280;43423;46.510;6.686;2023-07-28T03:17:15;96034.53;;;20.91;62.03
57594;BME280;43423;46.510;6.686;2023-07-28T03:19:41;96027.81;;;20.87;62.03
57594;BME280;43423;46.510;6.686;2023-07-28T03:22:06;96022.25;;;20.95;61.26
57594;BME280;43423;46.510;6.686;2023-07-28T03:24:32;96019.63;;;20.81;62.19
57594;BME280;43423;46.510;6.686;2023-07-28T03:26:58;96031.72;;;20.91;62.21
57594;BME280;43423;46.510;6.686;2023-07-28T03:29:23;96028.38;;;20.93;61.66
57594;BME280;43423;46.510;6.686;2023-07-28T03:31:49;96019.81;;;20.99;61.76
57594;BME280;43423;46.510;6.686;2023-07-28T03:34:14;96022.03;;;20.92;61.32
57594;BME280;43423;46.510;6.686;2023-07-28T03:36:40;96021.50;;;20.79;61.10
57594;BME280;43423;46.510;6.686;2023-07-28T03:39:05;96022.97;;;20.72;61.31
57594;BME280;43423;46.510;6.686;2023-07-28T03:41:31;96027.63;;;20.70;61.46
57594;BME280;43423;46.510;6.686;2023-07-28T03:43:57;96035.63;;;20.66;61.38
57594;BME280;43423;46.510;6.686;2023-07-28T03:46:22;96018.13;;;20.73;60.97
57594;BME280;43423;46.510;6.686;2023-07-28T03:48:48;96016.06;;;20.73;61.79
57594;BME280;43423;46.510;6.686;2023-07-28T03:51:14;96018.50;;;20.77;61.41
57594;BME280;43423;46.510;6.686;2023-07-28T03:53:39;96017.75;;;20.76;61.60
57594;BME280;43423;46.510;6.686;2023-07-28T03:56:05;96021.09;;;20.82;61.06
57594;BME280;43423;46.510;6.686;2023-07-28T03:58:30;96023.16;;;20.82;61.55
57594;BME280;43423;46.510;6.686;2023-07-28T04:00:56;96030.78;;;20.66;61.39
57594;BME280;43423;46.510;6.686;2023-07-28T04:03:22;96018.13;;;20.73;62.20
57594;BME280;43423;46.510;6.686;2023-07-28T04:05:47;96030.06;;;20.88;61.73
57594;BME280;43423;46.510;6.686;2023-07-28T04:08:13;96033.78;;;20.99;61.39
57594;BME280;43423;46.510;6.686;2023-07-28T04:10:39;96031.56;;;21.05;62.01
57594;BME280;43423;46.510;6.686;2023-07-28T04:13:04;96035.84;;;20.98;62.01
57594;BME280;43423;46.510;6.686;2023-07-28T04:15:30;96038.81;;;21.00;61.94
57594;BME280;43423;46.510;6.686;2023-07-28T04:17:55;96038.81;;;20.92;62.42
57594;BME280;43423;46.510;6.686;2023-07-28T04:20:21;96037.53;;;20.94;63.12
57594;BME280;43423;46.510;6.686;2023-07-28T04:22:46;96035.47;;;21.02;61.24
57594;BME280;43423;46.510;6.686;2023-07-28T04:25:12;96047.19;;;20.92;62.05
57594;BME280;43423;46.510;6.686;2023-07-28T04:27:38;96041.59;;;20.92;61.71
57594;BME280;43423;46.510;6.686;2023-07-28T04:30:04;96038.63;;;20.98;61.33
57594;BME280;43423;46.510;6.686;2023-07-28T04:32:29;96042.72;;;20.97;61.96
57594;BME280;43423;46.510;6.686;2023-07-28T04:34:55;96031.72;;;20.91;61.73
57594;BME280;43423;46.510;6.686;2023-07-28T04:37:21;96042.91;;;20.91;61.80
57594;BME280;43423;46.510;6.686;2023-07-28T04:39:47;96041.97;;;20.81;61.92
57594;BME280;43423;46.510;6.686;2023-07-28T04:42:12;96044.03;;;20.81;61.98
57594;BME280;43423;46.510;6.686;2023-07-28T04:44:38;96041.25;;;20.88;62.45
57594;BME280;43423;46.510;6.686;2023-07-28T04:47:05;96047.94;;;20.85;62.33
57594;BME280;43423;46.510;6.686;2023-07-28T04:49:31;96042.72;;;20.82;62.13
57594;BME280;43423;46.510;6.686;2023-07-28T04:51:57;96055.38;;;20.83;62.86
57594;BME280;43423;46.510;6.686;2023-07-28T04:54:22;96057.81;;;20.86;62.97
57594;BME280;43423;46.510;6.686;2023-07-28T04:56:48;96056.69;;;20.89;62.64
57594;BME280;43423;46.510;6.686;2023-07-28T04:59:15;96065.47;;;20.86;63.95
57594;BME280;43423;46.510;6.686;2023-07-28T05:01:41;96068.81;;;20.92;63.56
57594;BME280;43423;46.510;6.686;2023-07-28T05:04:06;96074.38;;;20.84;61.81
57594;BME280;43423;46.510;6.686;2023-07-28T05:06:32;96070.13;;;21.06;63.28
57594;BME280;43423;46.510;6.686;2023-07-28T05:08:58;96069.94;;;21.04;62.93
57594;BME280;43423;46.510;6.686;2023-07-28T05:11:23;96070.13;;;20.99;62.54
57594;BME280;43423;46.510;6.686;2023-07-28T05:13:49;96078.69;;;21.01;62.59
57594;BME280;43423;46.510;6.686;2023-07-28T05:16:14;96072.00;;;21.04;63.16
57594;BME280;43423;46.510;6.686;2023-07-28T05:18:40;96066.75;;;21.00;62.65
57594;BME280;43423;46.510;6.686;2023-07-28T05:21:08;96063.59;;;21.11;62.58
57594;BME280;43423;46.510;6.686;2023-07-28T05:23:34;96062.84;;;21.03;62.61
57594;BME280;43423;46.510;6.686;2023-07-28T05:25:59;96060.59;;;21.17;62.10
57594;BME280;43423;46.510;6.686;2023-07-28T05:28:25;96069.19;;;21.11;61.85
57594;BME280;43423;46.510;6.686;2023-07-28T05:30:50;96069.94;;;21.12;61.96
57594;BME280;43423;46.510;6.686;2023-07-28T05:33:16;96064.91;;;21.18;62.40
57594;BME280;43423;46.510;6.686;2023-07-28T05:35:41;96074.03;;;21.11;62.71
57594;BME280;43423;46.510;6.686;2023-07-28T05:38:07;96071.03;;;21.09;63.37
57594;BME280;43423;46.510;6.686;2023-07-28T05:40:32;96074.94;;;20.90;63.19
57594;BME280;43423;46.510;6.686;2023-07-28T05:42:58;96075.31;;;20.79;64.44
57594;BME280;43423;46.510;6.686;2023-07-28T05:45:24;96066.94;;;20.79;64.32
57594;BME280;43423;46.510;6.686;2023-07-28T05:47:49;96081.81;;;20.74;65.42
57594;BME280;43423;46.510;6.686;2023-07-28T05:50:15;96074.97;;;20.98;64.82
57594;BME280;43423;46.510;6.686;2023-07-28T05:52:40;96071.44;;;21.13;64.84
57594;BME280;43423;46.510;6.686;2023-07-28T05:55:06;96078.53;;;21.29;63.08
57594;BME280;43423;46.510;6.686;2023-07-28T05:57:32;96082.25;;;21.39;63.15
57594;BME280;43423;46.510;6.686;2023-07-28T05:59:57;96082.25;;;21.32;63.63
57594;BME280;43423;46.510;6.686;2023-07-28T06:02:23;96084.50;;;21.26;64.81
57594;BME280;43423;46.510;6.686;2023-07-28T06:04:48;96097.50;;;21.00;66.25
57594;BME280;43423;46.510;6.686;2023-07-28T06:07:14;96093.94;;;20.92;66.38
57594;BME280;43423;46.510;6.686;2023-07-28T06:09:39;96104.41;;;21.22;67.24
57594;BME280;43423;46.510;6.686;2023-07-28T06:12:05;96097.50;;;21.08;66.45
57594;BME280;43423;46.510;6.686;2023-07-28T06:14:31;96100.50;;;20.95;66.53
57594;BME280;43423;46.510;6.686;2023-07-28T06:16:57;96107.59;;;21.03;65.96
57594;BME280;43423;46.510;6.686;2023-07-28T06:19:22;96111.28;;;20.98;66.88
57594;BME280;43423;46.510;6.686;2023-07-28T06:21:50;96109.06;;;20.97;66.35
57594;BME280;43423;46.510;6.686;2023-07-28T06:24:16;96105.34;;;21.02;66.17
57594;BME280;43423;46.510;6.686;2023-07-28T06:26:42;96116.13;;;20.98;65.73
57594;BME280;43423;46.510;6.686;2023-07-28T06:29:07;96117.47;;;21.04;69.00
57594;BME280;43423;46.510;6.686;2023-07-28T06:31:33;96124.16;;;21.16;66.86
57594;BME280;43423;46.510;6.686;2023-07-28T06:33:58;96119.53;;;21.11;65.13
57594;BME280;43423;46.510;6.686;2023-07-28T06:36:24;96118.81;;;21.41;65.76
57594;BME280;43423;46.510;6.686;2023-07-28T06:38:49;96118.41;;;21.68;62.16
57594;BME280;43423;46.510;6.686;2023-07-28T06:41:16;96125.91;;;21.27;62.60
57594;BME280;43423;46.510;6.686;2023-07-28T06:43:42;96123.84;;;21.35;62.47
57594;BME280;43423;46.510;6.686;2023-07-28T06:46:08;96123.09;;;21.58;64.65
57594;BME280;43423;46.510;6.686;2023-07-28T06:48:33;96123.63;;;21.49;64.83
57594;BME280;43423;46.510;6.686;2023-07-28T06:50:59;96132.03;;;21.49;63.83
57594;BME280;43423;46.510;6.686;2023-07-28T06:53:24;96126.06;;;21.44;64.09
57594;BME280;43423;46.510;6.686;2023-07-28T06:55:50;96126.63;;;21.58;63.87
57594;BME280;43423;46.510;6.686;2023-07-28T06:58:15;96127.94;;;21.65;64.41
57594;BME280;43423;46.510;6.686;2023-07-28T07:00:42;96135.78;;;21.51;65.01
57594;BME280;43423;46.510;6.686;2023-07-28T07:03:09;96135.03;;;21.43;64.29
57594;BME280;43423;46.510;6.686;2023-07-28T07:05:35;96134.47;;;21.37;65.94
57594;BME280;43423;46.510;6.686;2023-07-28T07:08:01;96137.81;;;21.51;66.61
57594;BME280;43423;46.510;6.686;2023-07-28T07:10:27;96130.16;;;21.74;65.16
57594;BME280;43423;46.510;6.686;2023-07-28T07:12:52;96136.47;;;21.97;65.57
57594;BME280;43423;46.510;6.686;2023-07-28T07:15:18;96145.41;;;22.11;65.06
57594;BME280;43423;46.510;6.686;2023-07-28T07:17:43;96141.34;;;21.82;65.16
57594;BME280;43423;46.510;6.686;2023-07-28T07:20:09;96131.38;;;22.03;66.48
57594;BME280;43423;46.510;6.686;2023-07-28T07:22:35;96125.44;;;22.15;65.21
57594;BME280;43423;46.510;6.686;2023-07-28T07:25:03;96134.56;;;22.15;65.91
57594;BME280;43423;46.510;6.686;2023-07-28T07:27:29;96131.03;;;22.07;65.73
57594;BME280;43423;46.510;6.686;2023-07-28T07:29:55;96137.19;;;22.06;65.07
57594;BME280;43423;46.510;6.686;2023-07-28T07:32:20;96143.13;;;22.25;65.17
57594;BME280;43423;46.510;6.686;2023-07-28T07:34:46;96146.97;;;22.52;64.68
57594;BME280;43423;46.510;6.686;2023-07-28T07:37:11;96141.75;;;22.41;64.64
57594;BME280;43423;46.510;6.686;2023-07-28T07:39:37;96143.28;;;22.35;63.88
57594;BME280;43423;46.510;6.686;2023-07-28T07:42:02;96151.91;;;22.29;64.34
57594;BME280;43423;46.510;6.686;2023-07-28T07:44:28;96146.72;;;22.10;65.41
57594;BME280;43423;46.510;6.686;2023-07-28T07:46:55;96141.47;;;22.22;65.99
57594;BME280;43423;46.510;6.686;2023-07-28T07:49:21;96145.25;;;22.57;63.83
57594;BME280;43423;46.510;6.686;2023-07-28T07:51:47;96155.03;;;22.81;64.16
57594;BME280;43423;46.510;6.686;2023-07-28T07:54:12;96149.47;;;22.73;65.78
57594;BME280;43423;46.510;6.686;2023-07-28T07:56:41;96152.66;;;22.70;64.52
57594;BME280;43423;46.510;6.686;2023-07-28T07:59:07;96145.88;;;22.80;65.10
57594;BME280;43423;46.510;6.686;2023-07-28T08:01:33;96149.44;;;22.81;65.19
57594;BME280;43423;46.510;6.686;2023-07-28T08:03:58;96153.03;;;23.06;65.48
57594;BME280;43423;46.510;6.686;2023-07-28T08:06:24;96155.63;;;23.37;63.13
57594;BME280;43423;46.510;6.686;2023-07-28T08:08:50;96155.38;;;23.50;64.49
57594;BME280;43423;46.510;6.686;2023-07-28T08:11:18;96149.06;;;23.67;62.14
57594;BME280;43423;46.510;6.686;2023-07-28T08:13:43;96154.56;;;23.57;62.01
57594;BME280;43423;46.510;6.686;2023-07-28T08:16:10;96157.09;;;23.71;61.26
57594;BME280;43423;46.510;6.686;2023-07-28T08:18:36;96153.81;;;23.82;61.19
57594;BME280;43423;46.510;6.686;2023-07-28T08:21:01;96146.34;;;24.02;61.91
57594;BME280;43423;46.510;6.686;2023-07-28T08:23:27;96156.09;;;24.18;60.37
57594;BME280;43423;46.510;6.686;2023-07-28T08:25:53;96158.84;;;23.83;62.33
57594;BME280;43423;46.510;6.686;2023-07-28T08:28:19;96158.78;;;24.08;60.94
57594;BME280;43423;46.510;6.686;2023-07-28T08:30:44;96166.56;;;24.17;60.46
57594;BME280;43423;46.510;6.686;2023-07-28T08:33:10;96163.78;;;24.17;61.90
57594;BME280;43423;46.510;6.686;2023-07-28T08:35:35;96162.03;;;24.39;60.48
57594;BME280;43423;46.510;6.686;2023-07-28T08:38:01;96163.59;;;24.15;60.08
57594;BME280;43423;46.510;6.686;2023-07-28T08:40:26;96154.56;;;24.17;60.74
57594;BME280;43423;46.510;6.686;2023-07-28T08:42:53;96160.53;;;24.21;59.75
57594;BME280;43423;46.510;6.686;2023-07-28T08:45:19;96158.16;;;24.17;59.46
57594;BME280;43423;46.510;6.686;2023-07-28T08:47:45;96156.03;;;24.43;59.45
57594;BME280;43423;46.510;6.686;2023-07-28T08:50:10;96152.44;;;24.60;59.69
57594;BME280;43423;46.510;6.686;2023-07-28T08:52:36;96157.94;;;24.85;59.12
57594;BME280;43423;46.510;6.686;2023-07-28T08:55:02;96156.44;;;24.84;58.40
57594;BME280;43423;46.510;6.686;2023-07-28T08:57:28;96156.41;;;24.57;57.12
57594;BME280;43423;46.510;6.686;2023-07-28T08:59:54;96151.22;;;24.36;57.28
57594;BME280;43423;46.510;6.686;2023-07-28T09:02:20;96155.34;;;24.52;57.60
57594;BME280;43423;46.510;6.686;2023-07-28T09:04:47;96158.38;;;24.29;59.14
57594;BME280;43423;46.510;6.686;2023-07-28T09:07:13;96161.22;;;24.46;60.20
57594;BME280;43423;46.510;6.686;2023-07-28T09:09:39;96164.53;;;24.53;58.57
57594;BME280;43423;46.510;6.686;2023-07-28T09:12:09;96150.91;;;24.49;59.55
57594;BME280;43423;46.510;6.686;2023-07-28T09:14:36;96152.84;;;24.56;58.91
57594;BME280;43423;46.510;6.686;2023-07-28T09:17:11;96162.47;;;24.80;57.51
57594;BME280;43423;46.510;6.686;2023-07-28T09:19:52;96164.41;;;24.77;58.08
57594;BME280;43423;46.510;6.686;2023-07-28T09:22:19;96154.41;;;25.11;57.70
57594;BME280;43423;46.510;6.686;2023-07-28T09:24:46;96144.81;;;25.14;57.31
57594;BME280;43423;46.510;6.686;2023-07-28T09:27:25;96167.34;;;24.97;57.30
57594;BME280;43423;46.510;6.686;2023-07-28T09:29:52;96160.78;;;24.67;58.25
57594;BME280;43423;46.510;6.686;2023-07-28T09:32:31;96152.34;;;24.67;58.17
57594;BME280;43423;46.510;6.686;2023-07-28T09:35:08;96148.22;;;24.68;58.77
57594;BME280;43423;46.510;6.686;2023-07-28T09:37:42;96150.66;;;24.82;58.81
57594;BME280;43423;46.510;6.686;2023-07-28T09:40:09;96146.22;;;24.61;58.99
57594;BME280;43423;46.510;6.686;2023-07-28T09:42:38;96160.63;;;24.65;59.79
57594;BME280;43423;46.510;6.686;2023-07-28T09:45:05;96152.53;;;24.52;59.41
57594;BME280;43423;46.510;6.686;2023-07-28T09:47:33;96156.84;;;24.53;59.04
57594;BME280;43423;46.510;6.686;2023-07-28T09:50:00;96163.59;;;24.67;60.59
57594;BME280;43423;46.510;6.686;2023-07-28T09:52:33;96148.94;;;24.69;59.34
57594;BME280;43423;46.510;6.686;2023-07-28T09:55:05;96156.97;;;24.55;60.03
57594;BME280;43423;46.510;6.686;2023-07-28T09:57:38;96145.06;;;24.64;58.83
57594;BME280;43423;46.510;6.686;2023-07-28T10:00:04;96152.44;;;24.60;57.80
57594;BME280;43423;46.510;6.686;2023-07-28T10:02:34;96155.41;;;24.62;57.26
57594;BME280;43423;46.510;6.686;2023-07-28T10:05:01;96157.63;;;24.63;57.81
57594;BME280;43423;46.510;6.686;2023-07-28T10:07:28;96143.78;;;24.92;57.48
57594;BME280;43423;46.510;6.686;2023-07-28T10:09:54;96152.63;;;25.06;54.88
57594;BME280;43423;46.510;6.686;2023-07-28T10:12:24;96158.72;;;25.49;51.54
57594;BME280;43423;46.510;6.686;2023-07-28T10:15:03;96158.22;;;25.33;52.52
57594;BME280;43423;46.510;6.686;2023-07-28T10:17:32;96165.16;;;25.69;53.55
57594;BME280;43423;46.510;6.686;2023-07-28T10:20:04;96162.56;;;25.90;53.74
57594;BME280;43423;46.510;6.686;2023-07-28T10:22:44;96150.53;;;25.80;54.71
57594;BME280;43423;46.510;6.686;2023-07-28T10:25:10;96156.53;;;26.13;55.90
57594;BME280;43423;46.510;6.686;2023-07-28T10:27:45;96149.41;;;26.22;51.17
57594;BME280;43423;46.510;6.686;2023-07-28T10:30:13;96138.88;;;26.22;51.13
57594;BME280;43423;46.510;6.686;2023-07-28T10:32:39;96146.34;;;26.56;50.90
57594;BME280;43423;46.510;6.686;2023-07-28T10:35:07;96139.06;;;26.63;50.96
57594;BME280;43423;46.510;6.686;2023-07-28T10:37:35;96139.66;;;26.71;50.43
57594;BME280;43423;46.510;6.686;2023-07-28T10:42:50;96134.75;;;26.71;48.04
57594;BME280;43423;46.510;6.686;2023-07-28T10:45:16;96128.63;;;26.75;48.73
57594;BME280;43423;46.510;6.686;2023-07-28T10:47:42;96133.91;;;27.00;50.71
57594;BME280;43423;46.510;6.686;2023-07-28T10:50:09;96142.31;;;27.70;49.66
57594;BME280;43423;46.510;6.686;2023-07-28T10:52:41;96132.09;;;27.24;46.78
57594;BME280;43423;46.510;6.686;2023-07-28T10:55:18;96140.72;;;27.26;46.97
57594;BME280;43423;46.510;6.686;2023-07-28T10:57:44;96138.72;;;26.88;47.25
57594;BME280;43423;46.510;6.686;2023-07-28T11:00:12;96124.81;;;26.32;46.92
57594;BME280;43423;46.510;6.686;2023-07-28T11:02:48;96138.72;;;26.30;49.37
57594;BME280;43423;46.510;6.686;2023-07-28T11:05:26;96146.16;;;26.35;48.58
57594;BME280;43423;46.510;6.686;2023-07-28T11:07:54;96130.59;;;26.53;51.24
57594;BME280;43423;46.510;6.686;2023-07-28T11:10:20;96131.06;;;26.40;48.77
57594;BME280;43423;46.510;6.686;2023-07-28T11:12:48;96125.69;;;26.63;47.58
57594;BME280;43423;46.510;6.686;2023-07-28T11:15:15;96125.69;;;26.34;48.67
57594;BME280;43423;46.510;6.686;2023-07-28T11:17:47;96126.16;;;26.50;49.95
57594;BME280;43423;46.510;6.686;2023-07-28T11:20:17;96129.50;;;26.87;48.74
57594;BME280;43423;46.510;6.686;2023-07-28T11:22:44;96123.75;;;26.66;47.51
57594;BME280;43423;46.510;6.686;2023-07-28T11:25:10;96121.69;;;26.66;47.35
57594;BME280;43423;46.510;6.686;2023-07-28T11:27:37;96129.69;;;26.80;48.24
57594;BME280;43423;46.510;6.686;2023-07-28T11:30:03;96123.31;;;26.79;47.88
57594;BME280;43423;46.510;6.686;2023-07-28T11:32:30;96127.50;;;26.39;47.67
57594;BME280;43423;46.510;6.686;2023-07-28T11:35:02;96124.81;;;26.51;47.74
57594;BME280;43423;46.510;6.686;2023-07-28T11:37:29;96126.00;;;26.58;48.21
57594;BME280;43423;46.510;6.686;2023-07-28T11:39:56;96119.31;;;26.63;48.97
57594;BME280;43423;46.510;6.686;2023-07-28T11:42:22;96117.25;;;26.63;48.17
57594;BME280;43423;46.510;6.686;2023-07-28T11:44:48;96114.69;;;26.67;49.25
57594;BME280;43423;46.510;6.686;2023-07-28T11:47:17;96108.03;;;26.63;48.40
57594;BME280;43423;46.510;6.686;2023-07-28T11:49:48;96103.69;;;26.81;48.88
57594;BME280;43423;46.510;6.686;2023-07-28T11:52:14;96100.72;;;26.79;48.35
57594;BME280;43423;46.510;6.686;2023-07-28T11:54:40;96108.28;;;26.77;48.88
57594;BME280;43423;46.510;6.686;2023-07-28T11:57:07;96105.34;;;26.75;48.05
57594;BME280;43423;46.510;6.686;2023-07-28T11:59:34;96105.00;;;26.90;47.18
57594;BME280;43423;46.510;6.686;2023-07-28T12:02:02;96113.34;;;26.78;46.98
57594;BME280;43423;46.510;6.686;2023-07-28T12:04:31;96101.91;;;26.76;48.72
57594;BME280;43423;46.510;6.686;2023-07-28T12:07:11;96099.41;;;26.70;47.32
57594;BME280;43423;46.510;6.686;2023-07-28T12:12:19;96095.91;;;27.11;46.84
57594;BME280;43423;46.510;6.686;2023-07-28T12:14:45;96099.94;;;26.98;46.69
57594;BME280;43423;46.510;6.686;2023-07-28T12:17:16;96097.06;;;27.17;47.89
57594;BME280;43423;46.510;6.686;2023-07-28T12:20:04;96106.13;;;27.16;47.42
57594;BME280;43423;46.510;6.686;2023-07-28T12:22:37;96101.50;;;27.20;48.19
57594;BME280;43423;46.510;6.686;2023-07-28T12:25:04;96102.69;;;27.17;47.65
57594;BME280;43423;46.510;6.686;2023-07-28T12:27:30;96100.06;;;27.41;46.51
57594;BME280;43423;46.510;6.686;2023-07-28T12:29:56;96096.69;;;27.33;44.79
57594;BME280;43423;46.510;6.686;2023-07-28T12:32:22;96098.41;;;27.47;46.14
57594;BME280;43423;46.510;6.686;2023-07-28T12:34:51;96097.00;;;27.68;47.90
57594;BME280;43423;46.510;6.686;2023-07-28T12:37:17;96101.84;;;27.46;46.59
57594;BME280;43423;46.510;6.686;2023-07-28T12:39:43;96105.25;;;27.13;46.01
57594;BME280;43423;46.510;6.686;2023-07-28T12:42:10;96103.00;;;27.21;46.81
57594;BME280;43423;46.510;6.686;2023-07-28T12:44:37;96103.16;;;27.14;47.70
57594;BME280;43423;46.510;6.686;2023-07-28T12:47:03;96094.00;;;26.94;48.21
57594;BME280;43423;46.510;6.686;2023-07-28T12:49:29;96102.34;;;26.82;48.61
57594;BME280;43423;46.510;6.686;2023-07-28T12:51:56;96090.06;;;26.68;48.77
57594;BME280;43423;46.510;6.686;2023-07-28T12:54:23;96085.81;;;26.48;49.98
57594;BME280;43423;46.510;6.686;2023-07-28T12:56:49;96085.63;;;26.36;49.46
57594;BME280;43423;46.510;6.686;2023-07-28T12:59:15;96069.19;;;26.32;49.20
57594;BME280;43423;46.510;6.686;2023-07-28T13:01:40;96077.19;;;26.26;48.97
57594;BME280;43423;46.510;6.686;2023-07-28T13:04:06;96081.91;;;26.14;48.32
57594;BME280;43423;46.510;6.686;2023-07-28T13:06:32;96078.53;;;26.25;48.23
57594;BME280;43423;46.510;6.686;2023-07-28T13:08:58;96080.63;;;26.15;48.58